Time;durP1;ratioP1;P1;durP2;ratioP2;P2;SDS_P1;SDS_P2;PMS_P1;PMS_P2;Temp;Humidity;BMP_temperature;BMP_pressure;BME280_temperature;BME280_humidity;BME280_pressure;Samples;Min_cycle;Max_cycle;Signal;HPM_P1;HPM_P2
2022/01/22 05:01:57;;;;;;;21.20;14.50;;;4.10;99.90;;;;;;5322737;23;20578;-67
2022/01/22 05:04:24;;;;;;;24.37;13.50;;;4.10;99.90;;;;;;5035190;28;20452;-67
2022/01/22 05:06:51;;;;;;;24.80;14.67;;;4.20;99.90;;;;;;5035352;28;20531;-67
2022/01/22 05:09:17;;;;;;;20.13;13.70;;;4.10;99.90;;;;;;5035159;28;20448;-67
2022/01/22 05:11:45;;;;;;;20.47;14.90;;;4.10;99.90;;;;;;5034956;28;20823;-66
2022/01/22 05:14:12;;;;;;;22.53;15.00;;;4.10;99.90;;;;;;5035156;28;20489;-66
2022/01/22 05:16:39;;;;;;;19.20;13.83;;;4.20;99.90;;;;;;5034765;28;20460;-67
2022/01/22 05:19:12;;;;;;;21.43;14.37;;;4.20;99.90;;;;;;5034818;28;20452;-67
2022/01/22 05:21:40;;;;;;;19.47;14.83;;;4.20;99.90;;;;;;5034707;28;20473;-67
2022/01/22 05:24:12;;;;;;;17.57;13.57;;;4.20;99.90;;;;;;5034717;28;20479;-67
2022/01/22 05:29:29;;;;;;;18.23;14.43;;;4.30;99.90;;;;;;5034947;28;20536;-67
2022/01/22 05:32:29;;;;;;;22.90;14.87;;;4.30;99.90;;;;;;5037027;28;20514;-67
2022/01/22 05:37:42;;;;;;;27.80;16.90;;;4.40;99.90;;;;;;5034607;28;20409;-67
2022/01/22 05:40:10;;;;;;;23.67;14.20;;;4.40;99.90;;;;;;5034082;28;20966;-67
2022/01/22 05:42:36;;;;;;;19.27;15.03;;;4.40;99.90;;;;;;5034167;28;20935;-67
2022/01/22 05:45:04;;;;;;;16.63;14.13;;;4.40;99.90;;;;;;5034473;28;20447;-67
2022/01/22 05:47:31;;;;;;;21.10;15.50;;;4.40;99.90;;;;;;5034325;28;20476;-67
2022/01/22 05:50:00;;;;;;;22.43;15.70;;;4.30;99.90;;;;;;5034361;28;20507;-67
2022/01/22 05:52:33;;;;;;;21.70;14.67;;;4.30;99.90;;;;;;5034474;28;20469;-68
2022/01/22 05:55:27;;;;;;;20.97;15.70;;;4.40;99.90;;;;;;5034296;28;20495;-67
2022/01/22 06:00:38;;;;;;;20.03;14.43;;;4.40;99.90;;;;;;5033911;28;20467;-67
2022/01/22 06:03:05;;;;;;;20.90;14.13;;;4.40;99.90;;;;;;5034102;28;20452;-67
2022/01/22 06:05:33;;;;;;;20.13;14.00;;;4.40;99.90;;;;;;5033639;28;20456;-66
2022/01/22 06:08:00;;;;;;;20.60;15.80;;;4.40;99.90;;;;;;5033559;28;21006;-68
2022/01/22 06:10:28;;;;;;;22.27;15.80;;;4.50;99.90;;;;;;5033829;28;20480;-67
2022/01/22 06:13:11;;;;;;;21.23;15.43;;;4.50;99.90;;;;;;5033814;28;20456;-66
2022/01/22 06:15:37;;;;;;;20.07;16.17;;;4.50;99.90;;;;;;5033756;28;20887;-67
2022/01/22 06:18:05;;;;;;;21.83;14.37;;;4.50;99.90;;;;;;5033346;28;20452;-67
2022/01/22 06:20:33;;;;;;;20.70;14.33;;;4.50;99.90;;;;;;5033723;28;20503;-67
2022/01/22 06:23:00;;;;;;;20.00;15.60;;;4.50;99.90;;;;;;5033246;28;20452;-67
2022/01/22 06:25:26;;;;;;;24.03;15.80;;;4.50;99.90;;;;;;5033714;28;20471;-67
2022/01/22 06:27:53;;;;;;;20.57;14.93;;;4.50;99.90;;;;;;5034492;28;20480;-66
2022/01/22 06:30:20;;;;;;;20.20;14.93;;;4.50;99.90;;;;;;5033504;28;20453;-66
2022/01/22 06:32:47;;;;;;;18.30;14.83;;;4.40;99.90;;;;;;5033694;28;20453;-66
2022/01/22 06:35:14;;;;;;;22.87;14.33;;;4.40;99.90;;;;;;5033422;28;20816;-66
2022/01/22 06:37:42;;;;;;;17.70;14.00;;;4.30;99.90;;;;;;5033593;28;20850;-66
2022/01/22 06:42:55;;;;;;;19.53;14.73;;;4.40;99.90;;;;;;5033835;28;20555;-67
2022/01/22 06:45:21;;;;;;;19.23;14.47;;;4.40;99.90;;;;;;5033812;28;20521;-66
2022/01/22 06:47:48;;;;;;;18.40;12.93;;;4.40;99.90;;;;;;5033701;28;20499;-67
2022/01/22 06:50:15;;;;;;;18.40;13.97;;;4.40;99.90;;;;;;5034147;28;20479;-67
2022/01/22 06:52:43;;;;;;;19.00;14.47;;;4.40;99.90;;;;;;5033364;28;20644;-65
2022/01/22 06:55:11;;;;;;;20.70;14.83;;;4.40;99.90;;;;;;5033412;28;20452;-66
2022/01/22 06:57:38;;;;;;;20.80;14.53;;;4.40;99.90;;;;;;5033547;28;20456;-67
2022/01/22 07:00:06;;;;;;;21.97;14.73;;;4.40;99.90;;;;;;5033525;28;20510;-66
2022/01/22 07:02:33;;;;;;;24.40;13.10;;;4.40;99.90;;;;;;5033142;28;20987;-66
2022/01/22 07:05:00;;;;;;;14.53;12.50;;;4.40;99.90;;;;;;5033910;28;20457;-67
2022/01/22 07:07:26;;;;;;;20.50;13.37;;;4.40;99.90;;;;;;5033577;28;20452;-67
2022/01/22 07:09:54;;;;;;;16.53;11.80;;;4.40;99.90;;;;;;5033103;28;20456;-67
2022/01/22 07:12:21;;;;;;;16.30;12.60;;;4.40;99.90;;;;;;5033292;28;20484;-67
2022/01/22 07:14:49;;;;;;;19.80;13.53;;;4.50;99.90;;;;;;5033161;28;20817;-66
2022/01/22 07:17:16;;;;;;;18.83;13.30;;;4.50;99.90;;;;;;5033265;28;20488;-65
2022/01/22 07:19:43;;;;;;;20.60;13.87;;;4.50;99.90;;;;;;5033298;28;20448;-66
2022/01/22 07:22:31;;;;;;;16.27;12.00;;;4.50;99.90;;;;;;5032772;28;20526;-65
2022/01/22 07:24:59;;;;;;;16.00;11.87;;;4.50;99.90;;;;;;5033417;28;20451;-66
2022/01/22 07:27:26;;;;;;;14.47;12.40;;;4.50;99.90;;;;;;5034511;28;20456;-67
2022/01/22 07:29:52;;;;;;;15.97;12.90;;;4.50;99.90;;;;;;5040974;28;20487;-66
2022/01/22 07:32:27;;;;;;;16.37;13.37;;;4.50;99.90;;;;;;5042381;28;20499;-66
2022/01/22 07:34:54;;;;;;;23.73;12.80;;;4.50;99.90;;;;;;5046348;28;20490;-66
2022/01/22 07:37:21;;;;;;;18.90;13.00;;;4.50;99.90;;;;;;5045608;28;20456;-65
2022/01/22 07:39:48;;;;;;;17.33;12.43;;;4.50;99.90;;;;;;5040824;28;20931;-66
2022/01/22 07:42:16;;;;;;;14.47;12.20;;;4.50;99.90;;;;;;5037017;28;20472;-66
2022/01/22 07:44:42;;;;;;;14.33;12.83;;;4.50;99.90;;;;;;5036658;28;20457;-66
2022/01/22 07:47:10;;;;;;;16.70;13.10;;;4.60;99.90;;;;;;5036681;28;20460;-67
2022/01/22 07:49:37;;;;;;;15.97;11.87;;;4.60;99.90;;;;;;5036518;28;20495;-66
2022/01/22 07:52:04;;;;;;;21.27;13.00;;;4.60;99.90;;;;;;5037707;28;20480;-66
2022/01/22 07:54:32;;;;;;;18.63;14.20;;;4.60;99.90;;;;;;5036469;28;20459;-66
2022/01/22 07:56:59;;;;;;;14.10;12.20;;;4.60;99.90;;;;;;5036269;28;20460;-66
2022/01/22 07:59:27;;;;;;;18.07;13.13;;;4.70;99.90;;;;;;5036471;28;20459;-66
2022/01/22 08:01:54;;;;;;;16.77;12.30;;;4.70;99.90;;;;;;5036110;28;20480;-66
2022/01/22 08:04:24;;;;;;;16.40;12.73;;;4.70;99.90;;;;;;5036270;28;20452;-66
2022/01/22 08:06:52;;;;;;;16.40;13.20;;;4.70;99.90;;;;;;5036170;28;20464;-68
2022/01/22 08:09:18;;;;;;;17.50;13.07;;;4.70;99.90;;;;;;5036230;28;20518;-67
2022/01/22 08:11:45;;;;;;;21.53;12.53;;;4.70;99.90;;;;;;5036069;28;20479;-67
2022/01/22 08:14:12;;;;;;;17.60;13.03;;;4.70;99.90;;;;;;5036009;28;20456;-67
2022/01/22 08:16:40;;;;;;;19.07;13.63;;;4.70;99.90;;;;;;5036200;28;20452;-67
2022/01/22 08:19:07;;;;;;;17.80;13.07;;;4.70;99.90;;;;;;5036525;28;20862;-67
2022/01/22 08:21:34;;;;;;;14.70;12.13;;;4.70;99.90;;;;;;5035819;28;20479;-66
2022/01/22 08:24:00;;;;;;;14.90;12.63;;;4.70;99.90;;;;;;5035847;28;20464;-67
2022/01/22 08:26:32;;;;;;;17.73;12.93;;;4.70;99.90;;;;;;5035446;28;20944;-67
2022/01/22 08:29:01;;;;;;;17.87;12.90;;;4.70;99.90;;;;;;5036259;28;20532;-66
2022/01/22 08:31:45;;;;;;;15.67;12.63;;;4.70;99.90;;;;;;5035950;28;20575;-66
2022/01/22 08:36:57;;;;;;;18.33;10.10;;;4.90;99.90;;;;;;5035904;28;20419;-68
2022/01/22 08:39:24;;;;;;;19.60;13.10;;;5.00;99.90;;;;;;5035160;28;20818;-67
2022/01/22 08:41:51;;;;;;;18.10;13.60;;;5.10;99.90;;;;;;5034406;28;20832;-66
2022/01/22 08:44:17;;;;;;;18.10;14.10;;;5.20;99.90;;;;;;5035256;28;20463;-66
2022/01/22 08:46:44;;;;;;;14.10;12.00;;;5.20;99.90;;;;;;5035295;28;20452;-66
2022/01/22 08:49:13;;;;;;;14.90;12.50;;;5.20;99.90;;;;;;5035321;28;20834;-66
2022/01/22 08:51:40;;;;;;;15.37;11.97;;;5.10;99.90;;;;;;5035741;28;20476;-66
2022/01/22 08:54:07;;;;;;;16.93;12.10;;;5.10;99.90;;;;;;5034958;28;20805;-67
2022/01/22 08:56:34;;;;;;;15.43;12.57;;;5.10;99.90;;;;;;5035448;28;20457;-66
2022/01/22 08:59:00;;;;;;;14.93;11.93;;;5.20;99.90;;;;;;5035110;28;20452;-67
2022/01/22 09:01:27;;;;;;;17.40;12.97;;;5.20;99.90;;;;;;5034722;28;20503;-67
2022/01/22 09:03:54;;;;;;;14.50;12.23;;;5.20;99.90;;;;;;5035034;28;20456;-67
2022/01/22 09:06:22;;;;;;;20.90;13.67;;;5.20;99.90;;;;;;5035332;28;20459;-67
2022/01/22 09:08:51;;;;;;;20.93;12.50;;;5.20;99.90;;;;;;5036429;28;20483;-67
2022/01/22 09:11:18;;;;;;;16.73;12.33;;;5.00;99.90;;;;;;5036021;28;20508;-67
2022/01/22 09:13:45;;;;;;;17.43;11.47;;;5.10;99.90;;;;;;5035962;28;20452;-67
2022/01/22 09:16:11;;;;;;;14.83;11.90;;;5.10;99.90;;;;;;5035942;28;20531;-66
2022/01/22 09:18:38;;;;;;;20.30;12.27;;;5.10;99.90;;;;;;5035449;28;20455;-67
2022/01/22 09:21:08;;;;;;;21.87;12.57;;;5.10;99.90;;;;;;5035862;28;20472;-66
2022/01/22 09:23:36;;;;;;;17.27;11.90;;;5.10;99.90;;;;;;5035193;28;20452;-66
2022/01/22 09:26:03;;;;;;;18.37;13.57;;;5.10;99.90;;;;;;5034988;28;20998;-67
2022/01/22 09:28:32;;;;;;;17.00;12.90;;;5.10;99.90;;;;;;5035094;28;20468;-66
2022/01/22 09:30:58;;;;;;;17.23;12.40;;;5.10;99.90;;;;;;5034965;28;20567;-67
2022/01/22 09:33:25;;;;;;;21.03;14.43;;;5.10;99.90;;;;;;5034906;28;20451;-66
2022/01/22 09:35:52;;;;;;;18.33;12.33;;;5.10;99.90;;;;;;5034673;28;20456;-67
2022/01/22 09:38:19;;;;;;;17.57;13.57;;;5.10;99.90;;;;;;5034425;28;20940;-67
2022/01/22 09:40:47;;;;;;;20.70;13.20;;;5.10;99.90;;;;;;5034930;28;20484;-67
2022/01/22 09:43:14;;;;;;;17.40;14.00;;;5.10;99.90;;;;;;5035548;28;20795;-66
2022/01/22 09:45:41;;;;;;;18.47;13.20;;;5.10;99.90;;;;;;5034909;28;20456;-67
2022/01/22 09:48:07;;;;;;;19.50;13.23;;;5.10;99.90;;;;;;5034295;28;20973;-66
2022/01/22 09:50:35;;;;;;;20.03;13.33;;;5.10;99.90;;;;;;5034956;28;20488;-66
2022/01/22 09:53:02;;;;;;;15.87;12.10;;;5.10;99.90;;;;;;5035840;28;20455;-68
2022/01/22 09:55:29;;;;;;;18.93;13.10;;;5.10;99.90;;;;;;5036980;28;20456;-67
2022/01/22 09:57:58;;;;;;;15.50;11.80;;;5.10;99.90;;;;;;5034915;28;20459;-67
2022/01/22 10:00:26;;;;;;;15.47;13.13;;;5.10;99.90;;;;;;5034717;28;20555;-68
2022/01/22 10:02:56;;;;;;;18.43;13.40;;;5.10;99.90;;;;;;5034790;28;20441;-65
2022/01/22 10:05:35;;;;;;;20.47;14.67;;;5.20;99.90;;;;;;5035077;28;20444;-66
2022/01/22 10:08:28;;;;;;;17.30;12.83;;;5.20;99.90;;;;;;5034349;28;20441;-66
2022/01/22 10:10:57;;;;;;;19.63;12.70;;;5.30;99.90;;;;;;5034212;28;20506;-66
2022/01/22 10:13:42;;;;;;;15.20;13.50;;;5.30;99.90;;;;;;5034239;28;20463;-67
2022/01/22 10:16:15;;;;;;;14.53;12.73;;;5.30;99.90;;;;;;5034026;28;20440;-66
2022/01/22 10:18:42;;;;;;;18.47;13.00;;;5.30;99.90;;;;;;5033995;28;20445;-66
2022/01/22 10:21:10;;;;;;;16.33;11.93;;;5.30;99.90;;;;;;5034406;28;20472;-67
2022/01/22 10:23:39;;;;;;;17.43;12.50;;;5.30;99.90;;;;;;5033969;28;20460;-69
2022/01/22 10:26:09;;;;;;;18.50;12.43;;;5.40;99.90;;;;;;5034828;28;20916;-68
2022/01/22 10:28:44;;;;;;;16.47;12.20;;;5.40;99.90;;;;;;5034099;28;20449;-67
2022/01/22 10:31:19;;;;;;;17.03;13.70;;;5.50;99.90;;;;;;5033931;28;20472;-67
2022/01/22 10:34:04;;;;;;;17.20;12.37;;;5.50;99.90;;;;;;5034357;28;20441;-66
2022/01/22 10:36:31;;;;;;;20.57;13.67;;;5.50;99.90;;;;;;5034098;28;20444;-66
2022/01/22 10:38:58;;;;;;;17.93;12.20;;;5.50;99.90;;;;;;5033959;28;20486;-69
2022/01/22 10:41:35;;;;;;;16.80;13.17;;;5.50;99.90;;;;;;5033931;28;20476;-68
2022/01/22 10:44:05;;;;;;;17.67;13.83;;;5.50;99.90;;;;;;5033782;28;20444;-68
2022/01/22 10:46:44;;;;;;;15.50;12.87;;;5.50;99.90;;;;;;5033870;28;20440;-69
2022/01/22 10:49:13;;;;;;;16.33;12.20;;;5.50;99.90;;;;;;5033652;28;20487;-69
2022/01/22 10:51:49;;;;;;;16.40;13.03;;;5.50;99.90;;;;;;5033434;28;20979;-68
2022/01/22 10:54:17;;;;;;;15.33;11.07;;;5.60;99.90;;;;;;5033447;28;20447;-68
2022/01/22 10:56:45;;;;;;;12.63;11.07;;;5.60;99.90;;;;;;5033708;28;20459;-68
2022/01/22 10:59:16;;;;;;;14.50;12.00;;;5.60;99.90;;;;;;5033428;28;20448;-68
2022/01/22 11:01:50;;;;;;;16.23;10.73;;;5.60;99.90;;;;;;5033184;28;20491;-67
2022/01/22 11:04:18;;;;;;;14.77;10.63;;;5.70;99.90;;;;;;5035313;28;20455;-67
2022/01/22 11:06:50;;;;;;;19.93;12.03;;;5.70;99.90;;;;;;5037517;28;20490;-67
2022/01/22 11:09:17;;;;;;;14.00;11.07;;;5.70;99.90;;;;;;5037016;28;20990;-68
2022/01/22 11:11:44;;;;;;;12.60;10.03;;;5.80;99.90;;;;;;5037538;28;20479;-68
2022/01/22 11:14:13;;;;;;;14.13;10.23;;;5.80;99.90;;;;;;5037393;28;20825;-67
2022/01/22 11:16:43;;;;;;;13.20;10.33;;;5.70;99.90;;;;;;5037579;28;20437;-67
2022/01/22 11:19:10;;;;;;;11.23;9.80;;;5.80;99.90;;;;;;5037136;28;20439;-67
2022/01/22 11:21:40;;;;;;;13.77;10.97;;;5.80;99.90;;;;;;5037342;28;20998;-67
2022/01/22 11:24:08;;;;;;;14.40;9.50;;;5.80;99.90;;;;;;5040026;28;20450;-66
2022/01/22 11:26:38;;;;;;;14.07;10.23;;;5.80;99.90;;;;;;5037190;28;20456;-65
2022/01/22 11:29:05;;;;;;;9.80;8.70;;;5.90;99.90;;;;;;5037048;28;20476;-66
2022/01/22 11:31:37;;;;;;;13.00;10.47;;;5.90;99.90;;;;;;5037059;28;20476;-65
2022/01/22 11:34:06;;;;;;;11.37;9.13;;;5.80;99.90;;;;;;5037105;28;20447;-66
2022/01/22 11:36:39;;;;;;;12.63;11.20;;;6.00;99.90;;;;;;5036867;28;20477;-66
2022/01/22 11:39:06;;;;;;;14.33;10.07;;;6.40;99.90;;;;;;5036977;28;20440;-66
2022/01/22 11:41:33;;;;;;;12.47;10.03;;;6.50;99.90;;;;;;5036617;28;20475;-67
2022/01/22 11:44:10;;;;;;;13.20;10.03;;;6.50;99.90;;;;;;5037158;28;20459;-65
2022/01/22 11:46:42;;;;;;;13.33;9.33;;;6.50;99.90;;;;;;5037464;28;20908;-66
2022/01/22 11:49:22;;;;;;;14.83;10.57;;;6.60;99.90;;;;;;5037145;28;20447;-66
2022/01/22 11:51:51;;;;;;;16.20;8.93;;;6.60;99.90;;;;;;5036659;28;20944;-66
2022/01/22 11:54:19;;;;;;;11.70;9.60;;;6.60;99.90;;;;;;5036938;28;20578;-66
2022/01/22 11:56:49;;;;;;;14.40;9.93;;;6.50;99.90;;;;;;5037592;28;20452;-66
2022/01/22 11:59:26;;;;;;;14.67;9.47;;;6.50;99.90;;;;;;5037681;28;20802;-67
2022/01/22 12:02:02;;;;;;;12.20;10.50;;;6.50;99.90;;;;;;5037305;28;20480;-67
2022/01/22 12:04:45;;;;;;;9.57;8.50;;;6.40;99.90;;;;;;5036883;28;20458;-66
2022/01/22 12:07:14;;;;;;;14.33;10.57;;;6.40;99.90;;;;;;5036828;28;20540;-67
2022/01/22 12:09:51;;;;;;;11.57;9.80;;;6.40;99.90;;;;;;5036802;28;20844;-66
2022/01/22 12:15:09;;;;;;;16.33;10.07;;;6.40;99.90;;;;;;5035778;28;20500;-65
2022/01/22 12:17:59;;;;;;;15.20;9.30;;;6.50;99.90;;;;;;5035937;28;20459;-66
2022/01/22 12:21:30;;;;;;;12.10;8.83;;;6.50;99.90;;;;;;5036183;28;20444;-66
2022/01/22 12:23:56;;;;;;;11.10;8.70;;;6.40;99.90;;;;;;5035625;28;20452;-66
2022/01/22 12:26:53;;;;;;;11.90;9.70;;;6.30;99.90;;;;;;5036331;28;20495;-66
2022/01/22 12:29:59;;;;;;;10.07;9.07;;;6.20;99.90;;;;;;5036047;28;20436;-66
2022/01/22 12:32:33;;;;;;;14.37;9.10;;;6.10;99.90;;;;;;5035753;28;20879;-67
2022/01/22 12:35:12;;;;;;;10.10;8.73;;;6.10;99.90;;;;;;5036218;28;20895;-66
2022/01/22 12:40:34;;;;;;;18.60;9.30;;;6.10;99.90;;;;;;5042848;28;20958;-68
2022/01/22 12:43:13;;;;;;;14.83;8.97;;;5.90;99.90;;;;;;5043587;28;20444;-67
2022/01/22 12:45:44;;;;;;;22.67;9.33;;;6.00;99.90;;;;;;5037340;28;20490;-68
2022/01/22 12:48:13;;;;;;;13.73;9.97;;;5.90;99.90;;;;;;5036491;28;20447;-68
2022/01/22 12:50:42;;;;;;;15.03;9.80;;;6.00;99.90;;;;;;5035793;28;20995;-67
2022/01/22 12:53:13;;;;;;;10.93;9.30;;;6.00;99.90;;;;;;5035893;28;20456;-66
2022/01/22 12:58:38;;;;;;;14.17;10.37;;;6.10;99.90;;;;;;5035688;28;20444;-66
2022/01/22 13:01:13;;;;;;;13.03;10.47;;;6.00;99.90;;;;;;5036195;28;20500;-66
2022/01/22 13:03:42;;;;;;;13.93;10.10;;;6.00;99.90;;;;;;5053414;28;20428;-66
2022/01/22 13:06:10;;;;;;;13.27;11.07;;;6.00;99.90;;;;;;5047353;28;20451;-66
2022/01/22 13:08:37;;;;;;;16.43;11.67;;;6.00;99.90;;;;;;5036049;28;20448;-66
2022/01/22 13:11:07;;;;;;;13.50;10.60;;;5.90;99.90;;;;;;5036104;28;20979;-66
2022/01/22 13:13:35;;;;;;;13.50;12.20;;;5.90;99.90;;;;;;5035169;28;20945;-66
2022/01/22 13:16:04;;;;;;;16.67;11.43;;;5.90;99.90;;;;;;5035520;28;20456;-67
2022/01/22 13:18:43;;;;;;;12.97;10.67;;;5.90;99.90;;;;;;5035115;28;20452;-65
2022/01/22 13:21:12;;;;;;;13.10;10.87;;;5.90;99.90;;;;;;5035188;28;20468;-67
2022/01/22 13:23:40;;;;;;;14.73;11.50;;;5.90;99.90;;;;;;5035622;28;20531;-67
2022/01/22 13:26:08;;;;;;;14.03;10.83;;;5.90;99.90;;;;;;5034846;28;20449;-66
2022/01/22 13:28:36;;;;;;;13.27;11.73;;;5.90;99.90;;;;;;5034743;28;20467;-66
2022/01/22 13:31:10;;;;;;;16.43;11.50;;;5.90;99.90;;;;;;5034674;28;20542;-66
2022/01/22 13:33:43;;;;;;;12.93;11.07;;;5.90;99.90;;;;;;5034650;28;20923;-66
2022/01/22 13:36:31;;;;;;;20.77;11.67;;;5.90;99.90;;;;;;5035150;28;20444;-66
2022/01/22 13:49:53;;;;;;;21.90;12.63;;;5.90;99.90;;;;;;5034768;28;20583;-65
2022/01/22 13:52:27;;;;;;;15.47;12.43;;;5.90;99.90;;;;;;5034132;28;21086;-66
2022/01/22 13:54:54;;;;;;;16.70;12.47;;;5.90;99.90;;;;;;5034676;28;20436;-66
2022/01/22 13:57:22;;;;;;;15.03;11.70;;;5.80;99.90;;;;;;5034783;28;20551;-66
2022/01/22 13:59:52;;;;;;;22.40;14.57;;;5.90;99.90;;;;;;5035230;28;20459;-65
2022/01/22 14:02:36;;;;;;;15.93;12.47;;;5.80;99.90;;;;;;5034341;28;20837;-66
2022/01/22 14:05:07;;;;;;;14.63;11.93;;;5.80;99.90;;;;;;5034492;28;20443;-66
2022/01/22 14:07:39;;;;;;;18.63;12.80;;;5.80;99.90;;;;;;5034335;28;20461;-66
2022/01/22 14:10:08;;;;;;;17.27;12.47;;;5.80;99.90;;;;;;5034083;28;20967;-66
2022/01/22 14:12:51;;;;;;;16.03;12.13;;;5.80;99.90;;;;;;5034206;28;20479;-66
2022/01/22 14:15:29;;;;;;;15.10;12.03;;;5.70;99.90;;;;;;5033985;28;21002;-66
2022/01/22 14:18:07;;;;;;;20.17;13.00;;;5.70;99.90;;;;;;5034408;28;20439;-66
2022/01/22 14:20:35;;;;;;;15.53;12.10;;;5.70;99.90;;;;;;5034266;28;20479;-66
2022/01/22 14:23:05;;;;;;;18.87;13.30;;;5.70;99.90;;;;;;5034121;28;20456;-66
2022/01/22 14:25:34;;;;;;;17.27;12.50;;;5.70;99.90;;;;;;5034852;28;20453;-66
2022/01/22 14:28:04;;;;;;;14.90;11.53;;;5.70;99.90;;;;;;5037837;28;20495;-67
2022/01/22 14:30:34;;;;;;;17.67;12.90;;;5.70;99.90;;;;;;5034180;28;20460;-66
2022/01/22 14:33:01;;;;;;;15.93;13.40;;;5.70;99.90;;;;;;5034469;28;20452;-66
2022/01/22 14:35:28;;;;;;;22.30;12.73;;;5.70;99.90;;;;;;5034263;28;20448;-66
2022/01/22 14:37:57;;;;;;;16.43;13.07;;;5.70;99.90;;;;;;5033548;28;20962;-66
2022/01/22 14:46:00;;;;;;;14.77;13.17;;;5.60;99.90;;;;;;5037776;28;20913;-67
2022/01/22 14:48:27;;;;;;;16.57;12.93;;;5.70;99.90;;;;;;5037750;28;20966;-66
2022/01/22 14:50:54;;;;;;;19.13;13.03;;;5.70;99.90;;;;;;5038222;28;20480;-66
2022/01/22 14:53:23;;;;;;;18.00;13.43;;;5.70;99.90;;;;;;5038068;28;20456;-67
2022/01/22 14:55:53;;;;;;;22.10;13.37;;;5.70;99.90;;;;;;5037608;28;20946;-65
2022/01/22 14:58:20;;;;;;;14.67;13.23;;;5.70;99.90;;;;;;5037759;28;20440;-66
2022/01/22 15:00:47;;;;;;;20.57;13.73;;;5.60;99.90;;;;;;5037160;28;20487;-66
2022/01/22 15:03:13;;;;;;;25.33;14.10;;;5.70;99.90;;;;;;5037364;28;20939;-65
2022/01/22 15:05:40;;;;;;;20.07;13.80;;;5.70;99.90;;;;;;5037634;28;20463;-66
2022/01/22 15:08:07;;;;;;;17.00;14.60;;;5.70;99.90;;;;;;5037441;28;20463;-66
2022/01/22 15:10:33;;;;;;;20.73;15.47;;;5.80;99.90;;;;;;5037103;28;20475;-67
2022/01/22 15:13:01;;;;;;;18.03;14.53;;;5.80;99.90;;;;;;5037337;28;20456;-66
2022/01/22 15:15:34;;;;;;;23.10;16.80;;;5.80;99.90;;;;;;5037817;28;20459;-67
2022/01/22 15:18:09;;;;;;;23.03;15.70;;;5.70;99.90;;;;;;5037519;28;20472;-66
2022/01/22 15:20:36;;;;;;;25.53;15.60;;;5.70;99.90;;;;;;5037123;28;20464;-66
2022/01/22 15:23:03;;;;;;;25.43;14.97;;;5.70;99.90;;;;;;5037943;28;20820;-66
2022/01/22 15:25:30;;;;;;;22.07;15.50;;;5.60;99.90;;;;;;5037393;28;20436;-65
2022/01/22 15:27:56;;;;;;;21.33;15.43;;;5.70;99.90;;;;;;5037270;28;20959;-65
2022/01/22 15:30:31;;;;;;;19.23;14.43;;;5.70;99.90;;;;;;5037080;28;20476;-66
2022/01/22 15:33:03;;;;;;;23.00;16.07;;;5.60;99.90;;;;;;5037144;28;20890;-66
2022/01/22 15:35:30;;;;;;;23.67;16.03;;;5.70;99.90;;;;;;5037014;28;20439;-67
2022/01/22 15:37:58;;;;;;;21.77;14.60;;;5.60;99.90;;;;;;5037801;28;20950;-67
2022/01/22 15:40:28;;;;;;;23.87;15.73;;;5.60;99.90;;;;;;5036958;28;20475;-67
2022/01/22 15:42:55;;;;;;;22.70;14.87;;;5.70;99.90;;;;;;5037124;28;20825;-65
2022/01/22 15:45:28;;;;;;;19.20;15.70;;;5.70;99.90;;;;;;5036918;28;20464;-66
2022/01/22 15:47:55;;;;;;;17.90;14.93;;;5.70;99.90;;;;;;5037214;28;20440;-66
2022/01/22 15:50:24;;;;;;;19.33;14.73;;;5.60;99.90;;;;;;5035263;28;20514;-65
2022/01/22 15:52:50;;;;;;;24.77;16.07;;;5.60;99.90;;;;;;5036675;28;20846;-66
2022/01/22 15:55:17;;;;;;;19.07;16.60;;;5.60;99.90;;;;;;5036734;28;20452;-65
2022/01/22 15:57:44;;;;;;;21.07;14.77;;;5.50;99.90;;;;;;5036932;28;20459;-66
2022/01/22 16:00:13;;;;;;;23.00;16.77;;;5.60;99.90;;;;;;5037004;28;20936;-66
2022/01/22 16:02:41;;;;;;;25.60;16.57;;;5.50;99.90;;;;;;5040259;28;20476;-66
2022/01/22 16:05:09;;;;;;;22.43;17.00;;;5.50;99.90;;;;;;5044026;28;20507;-66
2022/01/22 16:07:36;;;;;;;21.57;16.63;;;5.50;99.90;;;;;;5041374;28;20967;-66
2022/01/22 16:10:05;;;;;;;24.43;17.00;;;5.40;99.90;;;;;;5037012;28;20448;-66
2022/01/22 16:12:33;;;;;;;24.40;16.33;;;5.50;99.90;;;;;;5036780;28;20963;-66
2022/01/22 16:15:00;;;;;;;19.50;16.33;;;5.40;99.90;;;;;;5053814;28;20444;-67
2022/01/22 16:17:30;;;;;;;24.90;17.20;;;5.50;99.90;;;;;;5045562;28;20805;-66
2022/01/22 16:20:00;;;;;;;23.50;15.37;;;5.50;99.90;;;;;;5037166;28;20455;-66
2022/01/22 16:22:29;;;;;;;19.73;16.30;;;5.50;99.90;;;;;;5036276;28;20507;-67
2022/01/22 16:24:57;;;;;;;24.43;16.60;;;5.60;99.90;;;;;;5036405;28;20452;-66
2022/01/22 16:27:25;;;;;;;20.57;15.83;;;5.60;99.90;;;;;;5036504;28;20448;-66
2022/01/22 16:29:53;;;;;;;19.10;15.43;;;5.60;99.90;;;;;;5036063;28;20457;-66
2022/01/22 16:32:22;;;;;;;20.23;15.97;;;5.60;99.90;;;;;;5036616;28;20511;-66
2022/01/22 16:34:49;;;;;;;19.37;15.60;;;5.70;99.90;;;;;;5036268;28;20453;-68
2022/01/22 16:37:17;;;;;;;20.83;16.30;;;5.70;99.90;;;;;;5035817;28;20457;-66
2022/01/22 16:39:44;;;;;;;18.37;15.77;;;5.70;99.90;;;;;;5036055;28;20444;-68
2022/01/22 16:42:15;;;;;;;22.27;14.83;;;5.70;99.90;;;;;;5035570;28;20530;-68
2022/01/22 16:44:50;;;;;;;20.43;14.83;;;5.70;99.90;;;;;;5036058;28;20440;-67
2022/01/22 16:55:48;;;;;;;20.57;15.77;;;5.60;99.90;;;;;;5035728;28;20432;-66
2022/01/22 16:58:14;;;;;;;23.43;16.07;;;5.60;99.90;;;;;;5035570;28;20445;-68
2022/01/22 17:00:45;;;;;;;19.83;15.40;;;5.50;99.90;;;;;;5035132;28;20488;-68
2022/01/22 17:03:16;;;;;;;21.17;14.60;;;5.50;99.90;;;;;;5035000;28;20433;-70
2022/01/22 17:05:44;;;;;;;25.87;14.93;;;5.50;99.90;;;;;;5034919;28;20951;-66
2022/01/22 17:08:29;;;;;;;26.63;15.87;;;5.50;99.90;;;;;;5035316;28;20459;-65
2022/01/22 17:11:04;;;;;;;24.53;16.23;;;5.50;99.90;;;;;;5035229;28;20486;-68
2022/01/22 17:16:15;;;;;;;22.63;16.43;;;5.40;99.90;;;;;;5035367;28;20787;-67
2022/01/22 17:18:41;;;;;;;26.00;16.63;;;5.50;99.90;;;;;;5034600;28;20963;-67
2022/01/22 17:21:08;;;;;;;21.87;14.97;;;5.50;99.90;;;;;;5035083;28;20502;-67
2022/01/22 17:23:36;;;;;;;22.30;17.50;;;5.50;99.90;;;;;;5035322;28;20456;-67
2022/01/22 17:26:03;;;;;;;25.40;16.80;;;5.50;99.90;;;;;;5035060;28;20480;-67
2022/01/22 17:28:30;;;;;;;20.50;16.20;;;5.50;99.90;;;;;;5035019;28;20456;-67
2022/01/22 17:30:57;;;;;;;27.10;17.50;;;5.50;99.90;;;;;;5034965;28;20512;-66
2022/01/22 17:33:24;;;;;;;25.80;17.30;;;5.50;99.90;;;;;;5035121;28;20819;-66
2022/01/22 17:35:52;;;;;;;25.07;17.43;;;5.50;99.90;;;;;;5034854;28;20475;-66
2022/01/22 17:38:19;;;;;;;29.70;18.40;;;5.50;99.90;;;;;;5034637;28;20453;-66
2022/01/22 17:40:49;;;;;;;25.53;18.27;;;5.60;99.90;;;;;;5034663;28;20480;-66
2022/01/22 17:43:16;;;;;;;31.30;25.60;;;5.60;99.90;;;;;;5034422;28;20456;-67
2022/01/22 17:45:45;;;;;;;33.17;21.90;;;5.60;99.90;;;;;;5034383;28;20459;-66
2022/01/22 17:48:13;;;;;;;26.30;20.13;;;5.60;99.90;;;;;;5034666;28;20816;-67
2022/01/22 17:50:40;;;;;;;23.60;17.07;;;5.60;99.90;;;;;;5034067;28;20984;-67
2022/01/22 17:53:08;;;;;;;21.77;17.93;;;5.50;99.90;;;;;;5034573;28;20459;-67
2022/01/22 17:55:34;;;;;;;30.00;19.27;;;5.60;99.90;;;;;;5034577;28;20456;-67
2022/01/22 17:58:03;;;;;;;22.63;17.63;;;5.50;99.90;;;;;;5034299;28;20456;-67
2022/01/22 18:00:31;;;;;;;25.73;18.53;;;5.60;99.90;;;;;;5034137;28;20455;-67
2022/01/22 18:02:57;;;;;;;27.60;17.87;;;5.60;99.90;;;;;;5034917;28;20446;-68
2022/01/22 18:05:24;;;;;;;23.00;18.60;;;5.60;99.90;;;;;;5033737;28;20487;-67
2022/01/22 18:07:51;;;;;;;24.27;19.10;;;5.60;99.90;;;;;;5034353;28;20455;-67
2022/01/22 18:10:18;;;;;;;27.43;18.97;;;5.60;99.90;;;;;;5034383;28;20459;-68
2022/01/22 18:12:45;;;;;;;29.30;19.70;;;5.60;99.90;;;;;;5034333;28;20476;-68
2022/01/22 18:15:13;;;;;;;26.97;19.20;;;5.60;99.90;;;;;;5033815;28;20467;-68
2022/01/22 18:17:40;;;;;;;24.67;19.87;;;5.60;99.90;;;;;;5034182;28;20460;-68
2022/01/22 18:20:08;;;;;;;29.90;19.57;;;5.60;99.90;;;;;;5034180;28;20456;-68
2022/01/22 18:22:35;;;;;;;30.63;19.40;;;5.50;99.90;;;;;;5034211;28;20469;-67
2022/01/22 18:25:02;;;;;;;23.93;17.57;;;5.50;99.90;;;;;;5034302;28;20973;-68
2022/01/22 18:27:29;;;;;;;25.53;18.40;;;5.50;99.90;;;;;;5034486;28;20460;-67
2022/01/22 18:29:56;;;;;;;32.10;21.03;;;5.40;99.90;;;;;;5034210;28;20460;-67
2022/01/22 18:32:24;;;;;;;30.20;21.17;;;5.40;99.90;;;;;;5037576;28;20519;-67
2022/01/22 18:34:51;;;;;;;31.93;20.57;;;5.30;99.90;;;;;;5036333;28;20456;-67
2022/01/22 18:37:18;;;;;;;26.40;20.40;;;5.20;99.90;;;;;;5034255;28;20456;-67
2022/01/22 18:39:44;;;;;;;34.17;21.10;;;5.20;99.90;;;;;;5033821;28;20459;-69
2022/01/22 18:42:11;;;;;;;33.37;22.30;;;5.20;99.90;;;;;;5034035;28;20500;-68